Terminal Aerodrome Forecast
Issued by NWS Louisville, KY

Home | Current Version | Previous Version | Text Only | Print | Product List | Glossary On
Versions: 1 2 3 4 5 6 7 8 9 10 11 12 13 14 15
932
FTUS43 KLMK 241127
TAFSDF
TAF
KSDF 241127Z 2412/2518 14003KT P6SM BKN100
     FM241400 04005KT 4SM SHRA BR BKN035
     FM241700 35009KT 4SM SHRA BR BKN014
      TEMPO 2417/2421 2SM SHRA BR BKN007
     FM250300 25015KT P6SM VCSH OVC012=

USA.gov is the U.S. government's official web portal to all federal, state and local government web resources and services.